Terminal Aerodrome Forecast
Issued by NWS

Home | Current Version | Previous Version | Text Only | Print | Product List | Glossary On
Versions: 1 2 3 4 5 6 7 8 9 10 11 12 13 14 15 16 17 18 19 20 21 22
000
FTUS43 KGRB 280520
TAFAUW
TAF
KAUW 280520Z 2806/2906 VRB03KT 6SM BR SCT090
      TEMPO 2807/2811 2SM BR SCT004
     FM281500 20008KT P6SM SCT070
     FM281900 18012G20KT P6SM SCT060
     FM290100 15005KT P6SM SCT200=

USA.gov is the U.S. government's official web portal to all federal, state and local government web resources and services.